Time;durP1;ratioP1;P1;durP2;ratioP2;P2;SDS_P1;SDS_P2;PMS_P1;PMS_P2;Temp;Humidity;BMP_temperature;BMP_pressure;BME280_temperature;BME280_humidity;BME280_pressure;Samples;Min_cycle;Max_cycle;Signal;HPM_P1;HPM_P2
2023/08/28 00:01:11;;;;;;;1.98;0.68;;;;;;;;;;8270049;28;20038;-56
2023/08/28 00:05:12;;;;;;;1.05;0.65;;;;;;;;;;8267055;28;20026;-55
2023/08/28 00:09:12;;;;;;;2.17;0.60;;;;;;;;;;8269792;28;20030;-55
2023/08/28 00:13:12;;;;;;;4.50;0.80;;;;;;;;;;8270099;28;20025;-55
2023/08/28 00:17:13;;;;;;;0.80;0.50;;;;;;;;;;8269702;28;20420;-55
2023/08/28 00:21:13;;;;;;;1.95;0.60;;;;;;;;;;8272689;28;20742;-55
2023/08/28 00:25:13;;;;;;;2.45;0.68;;;;;;;;;;8271870;28;20022;-55
2023/08/28 00:29:14;;;;;;;2.47;0.70;;;;;;;;;;8270815;28;20029;-56
2023/08/28 00:33:14;;;;;;;0.82;0.50;;;;;;;;;;8271812;28;20050;-55
2023/08/28 00:37:14;;;;;;;2.08;0.50;;;;;;;;;;8268775;28;20633;-56
2023/08/28 00:41:15;;;;;;;2.22;0.70;;;;;;;;;;8272018;28;20036;-55
2023/08/28 00:45:15;;;;;;;4.97;0.80;;;;;;;;;;8269788;28;20021;-56
2023/08/28 00:49:15;;;;;;;1.33;0.70;;;;;;;;;;8270556;28;20052;-56
2023/08/28 00:53:16;;;;;;;1.17;0.70;;;;;;;;;;8269465;28;20797;-55
2023/08/28 00:57:16;;;;;;;1.33;0.57;;;;;;;;;;8270013;28;20036;-55
2023/08/28 01:01:17;;;;;;;3.50;0.82;;;;;;;;;;8267891;28;20285;-55
2023/08/28 01:05:17;;;;;;;0.50;0.50;;;;;;;;;;8267382;28;20106;-56
2023/08/28 01:09:36;;;;;;;0.93;0.60;;;;;;;;;;8269271;28;20297;-56
2023/08/28 01:13:50;;;;;;;1.85;0.70;;;;;;;;;;8268664;28;20056;-55
2023/08/28 01:17:54;;;;;;;1.35;0.77;;;;;;;;;;8265586;28;20465;-56
2023/08/28 01:22:05;;;;;;;1.98;0.70;;;;;;;;;;8271704;28;20025;-56
2023/08/28 01:26:06;;;;;;;1.40;0.80;;;;;;;;;;8270052;28;20848;-56
2023/08/28 01:30:11;;;;;;;2.03;0.70;;;;;;;;;;8269748;28;20390;-56
2023/08/28 01:34:11;;;;;;;0.98;0.68;;;;;;;;;;8268488;28;20047;-56
2023/08/28 01:38:20;;;;;;;0.90;0.87;;;;;;;;;;8269919;28;20025;-56
2023/08/28 01:42:21;;;;;;;0.65;0.65;;;;;;;;;;8268198;28;21210;-56
2023/08/28 01:46:22;;;;;;;1.13;0.60;;;;;;;;;;8268872;28;20144;-56
2023/08/28 01:50:22;;;;;;;0.70;0.55;;;;;;;;;;8268559;28;20852;-56
2023/08/28 01:54:23;;;;;;;0.77;0.65;;;;;;;;;;8266159;28;20427;-56
2023/08/28 01:58:23;;;;;;;1.35;0.70;;;;;;;;;;8267959;28;20032;-56
2023/08/28 02:02:23;;;;;;;1.65;0.70;;;;;;;;;;8268376;28;20034;-56
2023/08/28 02:06:24;;;;;;;1.40;0.88;;;;;;;;;;8264567;28;20121;-56
2023/08/28 02:10:24;;;;;;;0.82;0.60;;;;;;;;;;8270047;28;20021;-56
2023/08/28 02:14:24;;;;;;;2.92;0.77;;;;;;;;;;8265077;28;20691;-56
2023/08/28 02:18:25;;;;;;;1.77;0.60;;;;;;;;;;8267562;28;20049;-55
2023/08/28 02:22:25;;;;;;;0.70;0.50;;;;;;;;;;8268890;28;20276;-56
2023/08/28 02:26:25;;;;;;;1.10;0.50;;;;;;;;;;8264886;28;20024;-56
2023/08/28 02:30:26;;;;;;;0.75;0.60;;;;;;;;;;8269304;28;20621;-56
2023/08/28 02:34:26;;;;;;;2.10;0.77;;;;;;;;;;8267752;28;20041;-56
2023/08/28 02:38:26;;;;;;;0.70;0.60;;;;;;;;;;8266216;28;20057;-56
2023/08/28 02:42:27;;;;;;;1.73;0.70;;;;;;;;;;8267419;28;20029;-56
2023/08/28 02:46:27;;;;;;;0.70;0.63;;;;;;;;;;8269513;28;20475;-56
2023/08/28 02:50:27;;;;;;;0.95;0.60;;;;;;;;;;8263519;28;20098;-56
2023/08/28 02:54:27;;;;;;;2.17;0.60;;;;;;;;;;8267448;28;20032;-55
2023/08/28 02:58:28;;;;;;;0.60;0.60;;;;;;;;;;8268774;28;20029;-55
2023/08/28 03:02:28;;;;;;;0.95;0.70;;;;;;;;;;8264631;28;20855;-55
2023/08/28 03:06:28;;;;;;;0.70;0.70;;;;;;;;;;8266948;28;20034;-56
2023/08/28 03:10:30;;;;;;;1.77;0.70;;;;;;;;;;8269604;28;20026;-55
2023/08/28 03:14:30;;;;;;;0.88;0.63;;;;;;;;;;8271513;28;20368;-55
2023/08/28 03:18:31;;;;;;;0.82;0.65;;;;;;;;;;8270851;28;20077;-55
2023/08/28 03:22:31;;;;;;;0.82;0.60;;;;;;;;;;8272709;28;20397;-56
2023/08/28 03:26:31;;;;;;;1.63;0.65;;;;;;;;;;8270044;28;20120;-56
2023/08/28 03:30:32;;;;;;;0.70;0.70;;;;;;;;;;8273903;28;20111;-56
2023/08/28 03:34:32;;;;;;;0.70;0.70;;;;;;;;;;8272431;28;20276;-56
2023/08/28 03:38:32;;;;;;;2.70;0.80;;;;;;;;;;8275367;28;20029;-55
2023/08/28 03:42:32;;;;;;;2.47;1.03;;;;;;;;;;8271254;28;20029;-56
2023/08/28 03:46:33;;;;;;;1.27;0.70;;;;;;;;;;8273740;28;20045;-55
2023/08/28 03:50:33;;;;;;;1.95;0.70;;;;;;;;;;8274056;28;20128;-55
2023/08/28 03:54:34;;;;;;;0.95;0.70;;;;;;;;;;8272191;28;20786;-55
2023/08/28 03:58:34;;;;;;;2.65;0.90;;;;;;;;;;8272649;28;20037;-55
2023/08/28 04:02:35;;;;;;;2.50;0.83;;;;;;;;;;8273608;28;20069;-56
2023/08/28 04:06:35;;;;;;;0.70;0.70;;;;;;;;;;8267835;28;20025;-56
2023/08/28 04:10:36;;;;;;;0.70;0.70;;;;;;;;;;8271877;28;20017;-54
2023/08/28 04:14:36;;;;;;;0.70;0.70;;;;;;;;;;8273230;28;20678;-55
2023/08/28 04:18:36;;;;;;;0.70;0.70;;;;;;;;;;8271125;28;20314;-55
2023/08/28 04:22:37;;;;;;;1.33;0.85;;;;;;;;;;8273290;28;20021;-55
2023/08/28 04:26:37;;;;;;;1.27;0.80;;;;;;;;;;8273053;28;20033;-55
2023/08/28 04:30:38;;;;;;;0.83;0.70;;;;;;;;;;8288143;28;20042;-55
2023/08/28 04:34:38;;;;;;;0.88;0.65;;;;;;;;;;8269031;28;20135;-55
2023/08/28 04:38:38;;;;;;;1.30;0.67;;;;;;;;;;8271495;28;20025;-55
2023/08/28 04:42:38;;;;;;;0.80;0.70;;;;;;;;;;8272163;28;20105;-56
2023/08/28 04:46:39;;;;;;;0.80;0.60;;;;;;;;;;8271318;28;20041;-55
2023/08/28 04:50:39;;;;;;;2.15;0.90;;;;;;;;;;8271752;28;20112;-55
2023/08/28 04:54:39;;;;;;;1.20;0.73;;;;;;;;;;8272327;28;20021;-55
2023/08/28 04:58:40;;;;;;;2.47;0.80;;;;;;;;;;8268665;28;20319;-56
2023/08/28 05:02:40;;;;;;;0.77;0.77;;;;;;;;;;8269978;28;20037;-56
2023/08/28 05:06:41;;;;;;;1.17;0.85;;;;;;;;;;8272915;28;20816;-56
2023/08/28 05:10:41;;;;;;;2.25;0.90;;;;;;;;;;8269865;28;20026;-55
2023/08/28 05:14:41;;;;;;;1.35;0.93;;;;;;;;;;8271361;28;20054;-55
2023/08/28 05:18:42;;;;;;;1.20;0.90;;;;;;;;;;8271815;28;20080;-55
2023/08/28 05:22:42;;;;;;;2.87;1.00;;;;;;;;;;8271032;28;20028;-56
2023/08/28 05:26:42;;;;;;;2.25;0.65;;;;;;;;;;8269627;28;20030;-55
2023/08/28 05:30:42;;;;;;;1.30;0.77;;;;;;;;;;8271922;28;20932;-56
2023/08/28 05:34:43;;;;;;;1.50;0.60;;;;;;;;;;8268822;28;20284;-56
2023/08/28 05:38:43;;;;;;;0.75;0.70;;;;;;;;;;8268769;28;20105;-55
2023/08/28 05:42:43;;;;;;;4.65;0.73;;;;;;;;;;8269268;28;20367;-56
2023/08/28 05:46:44;;;;;;;2.10;0.70;;;;;;;;;;8269126;28;20073;-55
2023/08/28 05:50:44;;;;;;;0.90;0.70;;;;;;;;;;8270416;28;20014;-56
2023/08/28 05:54:45;;;;;;;3.88;0.80;;;;;;;;;;8268062;28;20970;-55
2023/08/28 05:58:45;;;;;;;3.08;0.73;;;;;;;;;;8271131;28;20121;-55
2023/08/28 06:02:45;;;;;;;4.90;0.70;;;;;;;;;;8270074;28;20552;-55
2023/08/28 06:06:46;;;;;;;1.63;0.80;;;;;;;;;;8268337;28;20069;-56
2023/08/28 06:10:46;;;;;;;0.80;0.80;;;;;;;;;;8268826;28;20026;-55
2023/08/28 06:14:46;;;;;;;1.60;0.77;;;;;;;;;;8267636;28;20025;-55
2023/08/28 06:18:47;;;;;;;2.22;0.73;;;;;;;;;;8265268;28;20280;-55
2023/08/28 06:22:47;;;;;;;2.35;0.90;;;;;;;;;;8269630;28;20644;-56
2023/08/28 06:26:47;;;;;;;4.47;0.80;;;;;;;;;;8264857;28;20033;-55
2023/08/28 06:30:49;;;;;;;3.50;0.80;;;;;;;;;;8267380;28;20044;-55
2023/08/28 06:34:50;;;;;;;0.85;0.63;;;;;;;;;;8266301;28;20494;-56
2023/08/28 06:38:52;;;;;;;3.65;0.70;;;;;;;;;;8268860;28;20153;-55
2023/08/28 06:42:52;;;;;;;1.23;0.90;;;;;;;;;;8268513;28;20952;-56
2023/08/28 06:46:53;;;;;;;1.40;0.70;;;;;;;;;;8263672;28;20088;-56
2023/08/28 06:50:56;;;;;;;0.70;0.70;;;;;;;;;;8265215;28;20038;-55
2023/08/28 06:54:56;;;;;;;0.82;0.60;;;;;;;;;;8263581;28;20025;-55
2023/08/28 06:58:56;;;;;;;2.05;0.73;;;;;;;;;;8268610;28;20025;-56
2023/08/28 07:02:57;;;;;;;0.98;0.70;;;;;;;;;;8264027;28;20069;-56
2023/08/28 07:06:57;;;;;;;3.83;0.80;;;;;;;;;;8269408;28;20041;-56
2023/08/28 07:10:58;;;;;;;1.00;0.70;;;;;;;;;;8263825;28;20028;-55
2023/08/28 07:15:10;;;;;;;1.65;0.90;;;;;;;;;;8267568;28;20057;-56
2023/08/28 07:19:10;;;;;;;9.10;1.00;;;;;;;;;;8264654;28;20062;-56
2023/08/28 07:23:11;;;;;;;6.32;0.90;;;;;;;;;;8266111;28;20021;-56
2023/08/28 07:27:11;;;;;;;3.97;0.77;;;;;;;;;;8269727;28;20034;-56
2023/08/28 07:31:12;;;;;;;4.13;0.80;;;;;;;;;;8265228;28;20068;-55
2023/08/28 07:35:12;;;;;;;2.10;1.00;;;;;;;;;;8267683;28;20083;-56
2023/08/28 07:39:12;;;;;;;4.85;1.00;;;;;;;;;;8268270;28;20116;-55
2023/08/28 07:43:13;;;;;;;3.47;0.98;;;;;;;;;;8265493;28;20064;-56
2023/08/28 07:47:13;;;;;;;3.05;0.75;;;;;;;;;;8264837;28;21120;-56
2023/08/28 07:51:14;;;;;;;0.88;0.80;;;;;;;;;;8264909;28;20031;-55
2023/08/28 07:55:14;;;;;;;0.93;0.60;;;;;;;;;;8269277;28;20014;-55
2023/08/28 07:59:15;;;;;;;2.20;0.90;;;;;;;;;;8273229;28;20399;-55
2023/08/28 08:03:15;;;;;;;2.58;0.77;;;;;;;;;;8268525;28;20307;-56
2023/08/28 08:07:15;;;;;;;0.95;0.80;;;;;;;;;;8271198;28;20890;-56
2023/08/28 08:11:16;;;;;;;2.65;0.77;;;;;;;;;;8271960;28;20080;-56
2023/08/28 08:15:16;;;;;;;0.80;0.70;;;;;;;;;;8273083;28;20120;-56
2023/08/28 08:19:16;;;;;;;1.07;0.80;;;;;;;;;;8265785;28;20109;-55
2023/08/28 08:23:17;;;;;;;1.40;0.70;;;;;;;;;;8274260;28;20276;-56
2023/08/28 08:27:17;;;;;;;1.13;0.80;;;;;;;;;;8274306;28;20292;-57
2023/08/28 08:31:17;;;;;;;1.13;0.73;;;;;;;;;;8272175;28;20087;-57
2023/08/28 08:35:17;;;;;;;0.93;0.77;;;;;;;;;;8272023;28;20034;-56
2023/08/28 08:39:18;;;;;;;1.73;0.80;;;;;;;;;;8272501;28;20037;-56
2023/08/28 08:43:19;;;;;;;1.98;0.90;;;;;;;;;;8272337;28;20040;-56
2023/08/28 08:47:19;;;;;;;2.47;0.90;;;;;;;;;;8272021;28;20079;-57
2023/08/28 08:51:20;;;;;;;3.67;1.00;;;;;;;;;;8273040;28;20034;-56
2023/08/28 08:55:27;;;;;;;0.93;0.70;;;;;;;;;;8271619;28;20040;-56
2023/08/28 08:59:28;;;;;;;0.85;0.70;;;;;;;;;;8269129;28;20462;-56
2023/08/28 09:03:29;;;;;;;0.77;0.73;;;;;;;;;;8270151;28;20034;-56
2023/08/28 09:07:29;;;;;;;2.08;1.00;;;;;;;;;;8272454;28;20088;-56
2023/08/28 09:11:31;;;;;;;3.97;1.30;;;;;;;;;;8274000;28;20021;-57
2023/08/28 09:15:31;;;;;;;1.00;0.90;;;;;;;;;;8270879;28;20804;-56
2023/08/28 09:19:32;;;;;;;3.13;1.10;;;;;;;;;;8271195;28;20397;-57
2023/08/28 09:23:32;;;;;;;1.23;1.10;;;;;;;;;;8270810;28;20609;-56
2023/08/28 09:27:38;;;;;;;1.80;1.15;;;;;;;;;;8270705;28;20478;-56
2023/08/28 09:31:40;;;;;;;1.65;1.10;;;;;;;;;;8271358;28;20137;-57
2023/08/28 09:35:40;;;;;;;3.50;1.50;;;;;;;;;;8265464;28;20034;-56
2023/08/28 09:39:41;;;;;;;3.83;1.80;;;;;;;;;;8271305;28;20029;-57
2023/08/28 09:43:41;;;;;;;2.65;1.40;;;;;;;;;;8270019;28;20036;-57
2023/08/28 09:47:41;;;;;;;4.60;1.90;;;;;;;;;;8266805;28;20041;-57
2023/08/28 09:51:43;;;;;;;6.72;1.50;;;;;;;;;;8271127;28;20026;-56
2023/08/28 09:55:43;;;;;;;3.08;1.73;;;;;;;;;;8269497;28;20036;-57
2023/08/28 09:59:44;;;;;;;3.00;1.70;;;;;;;;;;8270866;28;20018;-57
2023/08/28 10:03:44;;;;;;;1.83;1.33;;;;;;;;;;8269595;28;20281;-56
2023/08/28 10:07:45;;;;;;;2.27;1.40;;;;;;;;;;8267625;28;20029;-56
2023/08/28 10:11:46;;;;;;;1.85;1.30;;;;;;;;;;8268501;28;21147;-57
2023/08/28 10:16:05;;;;;;;2.58;1.40;;;;;;;;;;8267572;28;20386;-56
2023/08/28 10:20:09;;;;;;;2.22;1.50;;;;;;;;;;8273227;28;20044;-57
2023/08/28 10:24:10;;;;;;;1.90;1.40;;;;;;;;;;8268346;28;20129;-57
2023/08/28 10:28:11;;;;;;;1.40;1.30;;;;;;;;;;8267047;28;20060;-57
2023/08/28 10:32:12;;;;;;;1.73;1.40;;;;;;;;;;8269063;28;20038;-57
2023/08/28 10:36:13;;;;;;;1.45;1.20;;;;;;;;;;8270008;28;20601;-57
2023/08/28 10:40:17;;;;;;;2.30;1.45;;;;;;;;;;8264392;28;20076;-57
2023/08/28 10:44:18;;;;;;;6.90;1.80;;;;;;;;;;8263351;28;20203;-57
2023/08/28 10:48:19;;;;;;;3.67;1.70;;;;;;;;;;8266557;28;20080;-57
2023/08/28 10:52:20;;;;;;;2.15;1.52;;;;;;;;;;8266694;28;20026;-57
2023/08/28 10:56:20;;;;;;;1.40;1.30;;;;;;;;;;8265525;28;20054;-57
2023/08/28 11:00:22;;;;;;;2.10;1.52;;;;;;;;;;8265554;28;20088;-57
2023/08/28 11:04:23;;;;;;;1.42;1.23;;;;;;;;;;8265718;28;20897;-57
2023/08/28 11:08:23;;;;;;;1.88;1.60;;;;;;;;;;8266569;28;20143;-56
2023/08/28 11:12:24;;;;;;;2.00;1.60;;;;;;;;;;8263143;28;20065;-56
2023/08/28 11:16:25;;;;;;;1.40;1.25;;;;;;;;;;8258529;28;20141;-57
2023/08/28 11:20:26;;;;;;;2.65;1.40;;;;;;;;;;8266422;28;20058;-56
2023/08/28 11:24:26;;;;;;;6.87;1.20;;;;;;;;;;8263271;28;20109;-56
2023/08/28 11:28:29;;;;;;;2.17;1.08;;;;;;;;;;8263770;28;20303;-57
2023/08/28 11:32:29;;;;;;;2.03;1.20;;;;;;;;;;8269598;28;20041;-56
2023/08/28 11:36:37;;;;;;;1.75;1.13;;;;;;;;;;8260815;28;20475;-56
2023/08/28 11:40:37;;;;;;;4.20;1.30;;;;;;;;;;8270390;28;20498;-56
2023/08/28 11:44:38;;;;;;;1.10;1.00;;;;;;;;;;8270787;28;20390;-57
2023/08/28 11:48:42;;;;;;;2.65;1.58;;;;;;;;;;8269723;28;20059;-56
2023/08/28 11:52:47;;;;;;;1.25;0.93;;;;;;;;;;8267992;28;20034;-57
2023/08/28 11:56:47;;;;;;;0.98;0.98;;;;;;;;;;8268179;28;20091;-56
2023/08/28 12:00:48;;;;;;;3.30;1.08;;;;;;;;;;8267983;28;20754;-55
2023/08/28 12:04:51;;;;;;;1.20;1.10;;;;;;;;;;8273533;28;20071;-56
2023/08/28 12:08:51;;;;;;;7.82;1.73;;;;;;;;;;8271335;28;20263;-56
2023/08/28 12:12:53;;;;;;;1.40;1.10;;;;;;;;;;8273467;28;20030;-56
2023/08/28 12:17:02;;;;;;;4.97;1.20;;;;;;;;;;8275241;28;20050;-56
2023/08/28 12:21:03;;;;;;;3.88;1.23;;;;;;;;;;8269644;28;20033;-55
2023/08/28 12:25:03;;;;;;;1.25;1.15;;;;;;;;;;8272655;28;20597;-57
2023/08/28 12:29:04;;;;;;;1.25;1.15;;;;;;;;;;8273125;28;20028;-56
2023/08/28 12:33:04;;;;;;;1.60;1.37;;;;;;;;;;8264799;28;20030;-57
2023/08/28 12:37:05;;;;;;;2.03;1.30;;;;;;;;;;8266620;28;20779;-58
2023/08/28 12:41:06;;;;;;;1.20;1.10;;;;;;;;;;8270370;28;20029;-60
2023/08/28 12:45:06;;;;;;;2.33;1.10;;;;;;;;;;8274065;28;20576;-57
2023/08/28 12:49:07;;;;;;;2.00;0.90;;;;;;;;;;8273222;28;20375;-56
2023/08/28 12:53:07;;;;;;;3.08;0.95;;;;;;;;;;8271228;28;21184;-56
2023/08/28 12:57:10;;;;;;;1.20;1.10;;;;;;;;;;8274752;28;20090;-58
2023/08/28 13:01:10;;;;;;;2.60;1.00;;;;;;;;;;8277749;28;20037;-58
2023/08/28 13:05:11;;;;;;;3.63;0.90;;;;;;;;;;8272420;28;20923;-57
2023/08/28 13:09:12;;;;;;;1.20;0.93;;;;;;;;;;8275961;28;20028;-60
2023/08/28 13:13:12;;;;;;;1.38;0.90;;;;;;;;;;8274502;28;20461;-57
2023/08/28 13:17:12;;;;;;;1.10;1.00;;;;;;;;;;8270747;28;20037;-58
2023/08/28 13:21:13;;;;;;;0.80;0.80;;;;;;;;;;8271025;28;20064;-58
2023/08/28 13:25:13;;;;;;;0.98;0.88;;;;;;;;;;8266748;28;20109;-57
2023/08/28 13:29:14;;;;;;;1.63;1.08;;;;;;;;;;8270662;28;20108;-57
2023/08/28 13:33:14;;;;;;;1.52;0.95;;;;;;;;;;8269833;28;20037;-57
2023/08/28 13:37:14;;;;;;;0.93;0.93;;;;;;;;;;8269187;28;20093;-57
2023/08/28 13:41:15;;;;;;;2.65;0.98;;;;;;;;;;8274096;28;20014;-57
2023/08/28 13:45:16;;;;;;;1.45;0.90;;;;;;;;;;8270091;28;20839;-56
2023/08/28 13:49:16;;;;;;;1.45;0.88;;;;;;;;;;8271424;28;21029;-57
2023/08/28 13:53:17;;;;;;;1.77;0.80;;;;;;;;;;8269040;28;20013;-57
2023/08/28 13:57:18;;;;;;;1.60;1.00;;;;;;;;;;8271761;28;20747;-57
2023/08/28 14:01:18;;;;;;;1.47;1.10;;;;;;;;;;8270823;28;20704;-57
2023/08/28 14:05:18;;;;;;;3.00;1.10;;;;;;;;;;8273098;28;20280;-57
2023/08/28 14:09:18;;;;;;;4.57;1.05;;;;;;;;;;8271894;28;20029;-57
2023/08/28 14:13:19;;;;;;;1.58;1.00;;;;;;;;;;8266204;28;20030;-57
2023/08/28 14:17:19;;;;;;;0.85;0.80;;;;;;;;;;8269920;28;20037;-57
2023/08/28 14:21:20;;;;;;;1.65;0.93;;;;;;;;;;8271953;28;20018;-57
2023/08/28 14:25:21;;;;;;;1.75;1.20;;;;;;;;;;8271973;28;20026;-57
2023/08/28 14:29:21;;;;;;;2.53;1.30;;;;;;;;;;8272749;28;21096;-57
2023/08/28 14:33:22;;;;;;;1.90;1.02;;;;;;;;;;8270162;28;20060;-56
2023/08/28 14:37:23;;;;;;;0.80;0.80;;;;;;;;;;8269280;28;20684;-57
2023/08/28 14:41:23;;;;;;;3.42;1.20;;;;;;;;;;8270318;28;20036;-56
2023/08/28 14:45:24;;;;;;;1.17;1.00;;;;;;;;;;8270605;28;20061;-57
2023/08/28 14:49:24;;;;;;;2.25;1.20;;;;;;;;;;8272481;28;20028;-57
2023/08/28 14:53:24;;;;;;;1.13;1.02;;;;;;;;;;8266896;28;20389;-57
2023/08/28 14:57:25;;;;;;;2.25;1.10;;;;;;;;;;8267380;28;20032;-57
2023/08/28 15:01:25;;;;;;;1.77;1.08;;;;;;;;;;8265618;28;20066;-57
2023/08/28 15:05:32;;;;;;;1.88;1.08;;;;;;;;;;8270528;28;20021;-57
2023/08/28 15:09:32;;;;;;;2.47;0.95;;;;;;;;;;8278173;28;20017;-56
2023/08/28 15:13:33;;;;;;;2.65;0.98;;;;;;;;;;8274284;28;20025;-56
2023/08/28 15:17:33;;;;;;;1.33;0.90;;;;;;;;;;8265444;28;20418;-57
2023/08/28 15:21:33;;;;;;;3.92;1.05;;;;;;;;;;8265295;28;20017;-57
2023/08/28 15:25:33;;;;;;;1.05;1.05;;;;;;;;;;8267297;28;20706;-57
2023/08/28 15:29:34;;;;;;;1.10;1.00;;;;;;;;;;8264001;28;20045;-57
2023/08/28 15:33:34;;;;;;;4.10;1.00;;;;;;;;;;8263088;28;20111;-57
2023/08/28 15:37:34;;;;;;;1.35;1.10;;;;;;;;;;8265449;28;20119;-56
2023/08/28 15:41:35;;;;;;;1.42;0.80;;;;;;;;;;8271394;28;20064;-57
2023/08/28 15:45:35;;;;;;;2.72;0.88;;;;;;;;;;8277262;28;20049;-58
2023/08/28 15:49:35;;;;;;;1.08;0.90;;;;;;;;;;8272088;28;20021;-57
2023/08/28 15:53:36;;;;;;;1.17;0.90;;;;;;;;;;8277905;28;20056;-56
2023/08/28 15:57:36;;;;;;;0.88;0.88;;;;;;;;;;8273777;28;20046;-57
2023/08/28 16:01:37;;;;;;;2.15;0.82;;;;;;;;;;8274086;28;20041;-57
2023/08/28 16:05:37;;;;;;;1.15;0.90;;;;;;;;;;8273268;28;20021;-57
2023/08/28 16:09:37;;;;;;;1.27;1.00;;;;;;;;;;8276759;28;20699;-56
2023/08/28 16:13:38;;;;;;;2.72;0.90;;;;;;;;;;8272797;28;20347;-57
2023/08/28 16:17:38;;;;;;;2.53;1.02;;;;;;;;;;8263555;28;20698;-56
2023/08/28 16:21:39;;;;;;;1.37;0.83;;;;;;;;;;8262003;28;20014;-56
2023/08/28 16:25:40;;;;;;;2.10;1.15;;;;;;;;;;8264366;28;20379;-57
2023/08/28 16:29:40;;;;;;;1.52;0.90;;;;;;;;;;8265695;28;20113;-57
2023/08/28 16:33:40;;;;;;;1.67;1.00;;;;;;;;;;8268982;28;20033;-57
2023/08/28 16:37:41;;;;;;;1.10;0.97;;;;;;;;;;8271386;28;20386;-57
2023/08/28 16:41:42;;;;;;;2.33;1.15;;;;;;;;;;8269772;28;20029;-57
2023/08/28 16:45:42;;;;;;;1.02;0.85;;;;;;;;;;8268994;28;20441;-57
2023/08/28 16:49:42;;;;;;;1.80;1.00;;;;;;;;;;8273771;28;20021;-57
2023/08/28 16:53:43;;;;;;;0.98;0.93;;;;;;;;;;8263148;28;20276;-56
2023/08/28 16:57:43;;;;;;;1.10;0.90;;;;;;;;;;8262036;28;20145;-56
2023/08/28 17:01:43;;;;;;;1.58;0.80;;;;;;;;;;8261380;28;20038;-56
2023/08/28 17:05:50;;;;;;;1.05;0.75;;;;;;;;;;8261065;28;20025;-56
2023/08/28 17:09:51;;;;;;;1.95;1.00;;;;;;;;;;8267567;28;20021;-57
2023/08/28 17:13:51;;;;;;;0.90;0.90;;;;;;;;;;8267447;28;20123;-57
2023/08/28 17:17:51;;;;;;;1.50;1.00;;;;;;;;;;8263235;28;21137;-56
2023/08/28 17:21:52;;;;;;;0.90;0.90;;;;;;;;;;8268117;28;20611;-57
2023/08/28 17:25:52;;;;;;;1.35;1.00;;;;;;;;;;8266107;28;20124;-57
2023/08/28 17:29:52;;;;;;;1.20;0.90;;;;;;;;;;8262760;28;20729;-57
2023/08/28 17:33:53;;;;;;;0.90;0.90;;;;;;;;;;8262069;28;20280;-56
2023/08/28 17:37:53;;;;;;;2.03;0.90;;;;;;;;;;8260208;28;20438;-57
2023/08/28 17:41:53;;;;;;;1.63;1.10;;;;;;;;;;8265441;28;20199;-57
2023/08/28 17:45:54;;;;;;;2.85;1.30;;;;;;;;;;8262421;28;20046;-57
2023/08/28 17:49:56;;;;;;;1.65;1.08;;;;;;;;;;8262829;28;20030;-57
2023/08/28 17:53:57;;;;;;;1.05;0.90;;;;;;;;;;8264271;28;20037;-56
2023/08/28 17:57:57;;;;;;;2.30;1.10;;;;;;;;;;8262531;28;20037;-56
2023/08/28 18:01:57;;;;;;;1.00;1.00;;;;;;;;;;8266535;28;20919;-56
2023/08/28 18:05:58;;;;;;;1.17;1.07;;;;;;;;;;8255014;28;20419;-56
2023/08/28 18:09:58;;;;;;;2.50;1.43;;;;;;;;;;8255828;28;20022;-55
2023/08/28 18:13:58;;;;;;;2.53;1.20;;;;;;;;;;8253068;28;20029;-56
2023/08/28 18:17:58;;;;;;;1.00;1.00;;;;;;;;;;8253320;28;20041;-56
2023/08/28 18:21:59;;;;;;;1.27;1.13;;;;;;;;;;8256563;28;20021;-57
2023/08/28 18:25:59;;;;;;;1.00;0.90;;;;;;;;;;8249591;28;20307;-57
2023/08/28 18:29:59;;;;;;;1.60;1.13;;;;;;;;;;8254220;28;20087;-56
2023/08/28 18:34:00;;;;;;;1.48;1.08;;;;;;;;;;8256625;28;20742;-56
2023/08/28 18:38:00;;;;;;;1.20;1.10;;;;;;;;;;8255786;28;20042;-57
2023/08/28 18:42:00;;;;;;;0.90;0.90;;;;;;;;;;8251853;28;20403;-57
2023/08/28 18:46:01;;;;;;;2.55;1.08;;;;;;;;;;8255828;28;20261;-57
2023/08/28 18:50:02;;;;;;;1.30;1.17;;;;;;;;;;8252745;28;20032;-56
2023/08/28 18:54:03;;;;;;;1.17;1.08;;;;;;;;;;8259812;28;20072;-57
2023/08/28 18:58:03;;;;;;;1.70;1.17;;;;;;;;;;8261083;28;20041;-56
2023/08/28 19:02:04;;;;;;;2.20;1.20;;;;;;;;;;8264111;28;20276;-56
2023/08/28 19:06:04;;;;;;;1.30;1.20;;;;;;;;;;8252456;28;20048;-56
2023/08/28 19:10:05;;;;;;;1.90;1.10;;;;;;;;;;8255201;28;20472;-56
2023/08/28 19:14:07;;;;;;;1.30;1.20;;;;;;;;;;8254056;28;20022;-57
2023/08/28 19:18:07;;;;;;;1.52;1.20;;;;;;;;;;8251795;28;20033;-56
2023/08/28 19:22:07;;;;;;;1.42;1.30;;;;;;;;;;8255633;28;20026;-56
2023/08/28 19:26:08;;;;;;;1.63;1.05;;;;;;;;;;8254313;28;20037;-56
2023/08/28 19:30:09;;;;;;;1.42;1.20;;;;;;;;;;8254298;28;20095;-56
2023/08/28 19:34:09;;;;;;;1.25;1.20;;;;;;;;;;8253039;28;20061;-56
2023/08/28 19:38:10;;;;;;;1.33;1.23;;;;;;;;;;8257426;28;20026;-56
2023/08/28 19:42:10;;;;;;;2.08;1.30;;;;;;;;;;8255459;28;20901;-57
2023/08/28 19:46:13;;;;;;;2.92;1.20;;;;;;;;;;8253907;28;20038;-57
2023/08/28 19:50:13;;;;;;;3.85;1.30;;;;;;;;;;8251049;28;20085;-56
2023/08/28 19:54:15;;;;;;;1.67;1.17;;;;;;;;;;8259315;28;20734;-56
2023/08/28 19:58:15;;;;;;;1.83;1.23;;;;;;;;;;8259849;28;20074;-55
2023/08/28 20:02:17;;;;;;;1.40;1.30;;;;;;;;;;8257884;28;20216;-56
2023/08/28 20:06:17;;;;;;;1.95;1.20;;;;;;;;;;8257415;28;21047;-57
2023/08/28 20:10:17;;;;;;;1.73;1.40;;;;;;;;;;8251913;28;20091;-57
2023/08/28 20:14:18;;;;;;;1.87;1.03;;;;;;;;;;8247401;28;21037;-56
2023/08/28 20:18:19;;;;;;;1.52;1.40;;;;;;;;;;8255770;28;21090;-57
2023/08/28 20:22:19;;;;;;;1.35;1.20;;;;;;;;;;8258648;28;20018;-56
2023/08/28 20:26:20;;;;;;;1.25;1.15;;;;;;;;;;8255806;28;20519;-56
2023/08/28 20:30:21;;;;;;;4.57;1.50;;;;;;;;;;8255253;28;20018;-56
2023/08/28 20:34:21;;;;;;;4.40;1.40;;;;;;;;;;8252648;28;20048;-57
2023/08/28 20:38:24;;;;;;;1.40;1.30;;;;;;;;;;8254980;28;20359;-56
2023/08/28 20:42:24;;;;;;;2.08;1.40;;;;;;;;;;8252198;28;20336;-56
2023/08/28 20:46:25;;;;;;;1.40;1.30;;;;;;;;;;8250726;28;20057;-56
2023/08/28 20:50:26;;;;;;;3.50;1.30;;;;;;;;;;8259123;28;20707;-56
2023/08/28 20:54:26;;;;;;;1.63;1.17;;;;;;;;;;8250650;28;20022;-56
2023/08/28 20:58:28;;;;;;;3.13;1.25;;;;;;;;;;8252299;28;20410;-56
2023/08/28 21:02:28;;;;;;;2.67;1.30;;;;;;;;;;8249429;28;20041;-56
2023/08/28 21:06:28;;;;;;;2.53;1.10;;;;;;;;;;8253772;28;20741;-56
2023/08/28 21:10:29;;;;;;;2.35;1.30;;;;;;;;;;8254344;28;20517;-56
2023/08/28 21:14:29;;;;;;;1.38;1.20;;;;;;;;;;8253731;28;20025;-56
2023/08/28 21:18:29;;;;;;;1.30;1.20;;;;;;;;;;8261645;28;20052;-56
2023/08/28 21:22:30;;;;;;;1.50;1.40;;;;;;;;;;8260108;28;20030;-56
2023/08/28 21:26:30;;;;;;;2.72;1.30;;;;;;;;;;8257004;28;20026;-56
2023/08/28 21:30:31;;;;;;;1.77;1.40;;;;;;;;;;8252889;28;20099;-56
2023/08/28 21:34:32;;;;;;;2.20;1.30;;;;;;;;;;8266027;28;20025;-56
2023/08/28 21:38:33;;;;;;;1.97;1.67;;;;;;;;;;8266628;28;20300;-57
2023/08/28 21:42:34;;;;;;;3.60;1.20;;;;;;;;;;8267882;28;20076;-56
2023/08/28 21:46:34;;;;;;;1.60;1.50;;;;;;;;;;8269365;28;20041;-56
2023/08/28 21:50:36;;;;;;;1.52;1.33;;;;;;;;;;8265150;28;20051;-56
2023/08/28 21:54:36;;;;;;;1.80;1.67;;;;;;;;;;8267721;28;20049;-56
2023/08/28 21:58:37;;;;;;;1.73;1.40;;;;;;;;;;8268779;28;20785;-56
2023/08/28 22:02:37;;;;;;;1.38;1.23;;;;;;;;;;8265955;28;20490;-57
2023/08/28 22:06:37;;;;;;;1.70;1.60;;;;;;;;;;8265599;28;20129;-56
2023/08/28 22:10:38;;;;;;;1.48;1.38;;;;;;;;;;8266107;28;20026;-56
2023/08/28 22:14:39;;;;;;;2.20;1.55;;;;;;;;;;8260771;28;20029;-56
2023/08/28 22:18:39;;;;;;;1.60;1.50;;;;;;;;;;8265911;28;20042;-56
2023/08/28 22:22:39;;;;;;;6.18;1.48;;;;;;;;;;8261956;28;20513;-57
2023/08/28 22:26:39;;;;;;;2.27;1.70;;;;;;;;;;8264996;28;20157;-56
2023/08/28 22:30:40;;;;;;;2.50;1.73;;;;;;;;;;8260224;28;20040;-57
2023/08/28 22:34:40;;;;;;;3.05;1.70;;;;;;;;;;8264664;28;20637;-56
2023/08/28 22:38:41;;;;;;;1.67;1.57;;;;;;;;;;8264545;28;20022;-57
2023/08/28 22:42:41;;;;;;;1.80;1.70;;;;;;;;;;8269303;28;20354;-57
2023/08/28 22:46:41;;;;;;;1.73;1.63;;;;;;;;;;8260977;28;20061;-56
2023/08/28 22:50:41;;;;;;;1.95;1.75;;;;;;;;;;8264671;28;20111;-56
2023/08/28 22:54:42;;;;;;;1.70;1.60;;;;;;;;;;8265886;28;20025;-55
2023/08/28 22:58:42;;;;;;;1.98;1.45;;;;;;;;;;8261217;28;20025;-56
2023/08/28 23:02:43;;;;;;;2.93;1.80;;;;;;;;;;8264654;28;20109;-56
2023/08/28 23:06:43;;;;;;;2.17;1.65;;;;;;;;;;8266854;28;20363;-56
2023/08/28 23:10:43;;;;;;;2.77;1.90;;;;;;;;;;8266472;28;20041;-56
2023/08/28 23:14:43;;;;;;;2.13;1.80;;;;;;;;;;8262238;28;20021;-56
2023/08/28 23:18:44;;;;;;;3.08;2.35;;;;;;;;;;8265138;28;20042;-56
2023/08/28 23:22:44;;;;;;;2.58;1.95;;;;;;;;;;8269419;28;20022;-56
2023/08/28 23:26:44;;;;;;;4.60;2.15;;;;;;;;;;8270327;28;20059;-56
2023/08/28 23:30:45;;;;;;;2.15;1.80;;;;;;;;;;8270359;28;20037;-56
2023/08/28 23:34:45;;;;;;;2.00;1.90;;;;;;;;;;8269176;28;20021;-57
2023/08/28 23:38:45;;;;;;;2.87;2.27;;;;;;;;;;8270775;28;20280;-56
2023/08/28 23:42:45;;;;;;;2.30;2.10;;;;;;;;;;8273638;28;20104;-56
2023/08/28 23:46:46;;;;;;;3.05;2.35;;;;;;;;;;8270134;28;20423;-56
2023/08/28 23:50:46;;;;;;;2.10;1.90;;;;;;;;;;8272102;28;20355;-56
2023/08/28 23:54:46;;;;;;;2.00;1.90;;;;;;;;;;8271669;28;20036;-56
2023/08/28 23:58:47;;;;;;;2.35;2.03;;;;;;;;;;8273381;28;20229;-56
